sensor_id;sensor_type;location;lat;lon;timestamp;pressure;altitude;pressure_sealevel;temperature;humidity
55187;BME280;55457;52.002;5.464;2023-05-03T00:02:01;102759.50;;;20.92;36.36
55187;BME280;55457;52.002;5.464;2023-05-03T00:04:28;102763.88;;;20.93;36.31
55187;BME280;55457;52.002;5.464;2023-05-03T00:06:55;102749.69;;;20.91;36.25
55187;BME280;55457;52.002;5.464;2023-05-03T00:09:21;102750.75;;;20.90;36.28
55187;BME280;55457;52.002;5.464;2023-05-03T00:11:46;102756.16;;;20.90;36.27
55187;BME280;55457;52.002;5.464;2023-05-03T00:14:11;102753.47;;;20.90;36.29
55187;BME280;55457;52.002;5.464;2023-05-03T00:16:37;102758.88;;;20.90;36.31
55187;BME280;55457;52.002;5.464;2023-05-03T00:19:02;102743.66;;;20.89;36.33
55187;BME280;55457;52.002;5.464;2023-05-03T00:21:27;102749.09;;;20.89;36.22
55187;BME280;55457;52.002;5.464;2023-05-03T00:23:53;102757.22;;;20.89;36.27
55187;BME280;55457;52.002;5.464;2023-05-03T00:26:19;102753.66;;;20.89;36.20
55187;BME280;55457;52.002;5.464;2023-05-03T00:28:44;102755.53;;;20.88;36.49
55187;BME280;55457;52.002;5.464;2023-05-03T00:31:10;102761.78;;;20.89;36.56
55187;BME280;55457;52.002;5.464;2023-05-03T00:33:36;102749.25;;;20.88;36.22
55187;BME280;55457;52.002;5.464;2023-05-03T00:36:12;102753.84;;;20.87;36.68
55187;BME280;55457;52.002;5.464;2023-05-03T00:38:39;102750.13;;;20.88;36.59
55187;BME280;55457;52.002;5.464;2023-05-03T00:41:04;102747.41;;;20.88;36.55
55187;BME280;55457;52.002;5.464;2023-05-03T00:43:31;102748.44;;;20.87;36.20
55187;BME280;55457;52.002;5.464;2023-05-03T00:46:02;102752.19;;;20.86;36.37
55187;BME280;55457;52.002;5.464;2023-05-03T00:48:30;102752.19;;;20.86;36.33
55187;BME280;55457;52.002;5.464;2023-05-03T00:50:57;102753.00;;;20.87;36.57
55187;BME280;55457;52.002;5.464;2023-05-03T00:53:22;102758.44;;;20.87;36.43
55187;BME280;55457;52.002;5.464;2023-05-03T00:55:51;102752.19;;;20.86;36.33
55187;BME280;55457;52.002;5.464;2023-05-03T00:58:16;102751.34;;;20.85;36.28
55187;BME280;55457;52.002;5.464;2023-05-03T01:00:42;102756.75;;;20.85;36.44
55187;BME280;55457;52.002;5.464;2023-05-03T01:03:07;102755.94;;;20.85;36.40
55187;BME280;55457;52.002;5.464;2023-05-03T01:06:05;102753.22;;;20.85;36.40
55187;BME280;55457;52.002;5.464;2023-05-03T01:08:39;102759.69;;;20.84;36.61
55187;BME280;55457;52.002;5.464;2023-05-03T01:11:32;102752.59;;;20.83;36.35
55187;BME280;55457;52.002;5.464;2023-05-03T01:14:09;102754.25;;;20.84;36.51
55187;BME280;55457;52.002;5.464;2023-05-03T01:16:43;102754.25;;;20.84;36.33
55187;BME280;55457;52.002;5.464;2023-05-03T01:19:35;102752.59;;;20.83;36.65
55187;BME280;55457;52.002;5.464;2023-05-03T01:22:16;102747.19;;;20.83;36.58
55187;BME280;55457;52.002;5.464;2023-05-03T01:24:49;102750.91;;;20.82;36.56
55187;BME280;55457;52.002;5.464;2023-05-03T01:27:15;102749.22;;;20.81;36.37
55187;BME280;55457;52.002;5.464;2023-05-03T01:29:40;102751.94;;;20.81;36.44
55187;BME280;55457;52.002;5.464;2023-05-03T01:32:12;102744.66;;;20.81;36.50
55187;BME280;55457;52.002;5.464;2023-05-03T01:34:50;102748.19;;;20.82;36.50
55187;BME280;55457;52.002;5.464;2023-05-03T01:37:16;102743.81;;;20.81;36.46
55187;BME280;55457;52.002;5.464;2023-05-03T01:39:47;102743.81;;;20.81;36.51
55187;BME280;55457;52.002;5.464;2023-05-03T01:42:14;102737.56;;;20.80;36.63
55187;BME280;55457;52.002;5.464;2023-05-03T01:44:41;102741.94;;;20.81;36.57
55187;BME280;55457;52.002;5.464;2023-05-03T01:47:08;102745.69;;;20.80;36.65
55187;BME280;55457;52.002;5.464;2023-05-03T01:49:33;102747.56;;;20.80;36.91
55187;BME280;55457;52.002;5.464;2023-05-03T01:51:59;102750.06;;;20.81;36.90
55187;BME280;55457;52.002;5.464;2023-05-03T01:54:25;102749.22;;;20.81;36.87
55187;BME280;55457;52.002;5.464;2023-05-03T01:56:50;102748.19;;;20.82;36.98
55187;BME280;55457;52.002;5.464;2023-05-03T01:59:16;102739.22;;;20.81;37.03
55187;BME280;55457;52.002;5.464;2023-05-03T02:01:41;102736.34;;;20.83;37.24
55187;BME280;55457;52.002;5.464;2023-05-03T02:04:06;102745.47;;;20.82;36.94
55187;BME280;55457;52.002;5.464;2023-05-03T02:06:32;102741.75;;;20.83;37.11
55187;BME280;55457;52.002;5.464;2023-05-03T02:08:57;102741.75;;;20.83;37.34
55187;BME280;55457;52.002;5.464;2023-05-03T02:11:23;102735.28;;;20.84;37.18
55187;BME280;55457;52.002;5.464;2023-05-03T02:13:48;102729.22;;;20.82;37.11
55187;BME280;55457;52.002;5.464;2023-05-03T02:16:17;102736.34;;;20.83;37.23
55187;BME280;55457;52.002;5.464;2023-05-03T02:18:43;102731.75;;;20.83;37.15
55187;BME280;55457;52.002;5.464;2023-05-03T02:21:08;102730.91;;;20.83;37.31
55187;BME280;55457;52.002;5.464;2023-05-03T02:23:34;102728.22;;;20.83;37.09
55187;BME280;55457;52.002;5.464;2023-05-03T02:25:59;102727.16;;;20.84;37.05
55187;BME280;55457;52.002;5.464;2023-05-03T02:28:25;102728.00;;;20.84;37.27
55187;BME280;55457;52.002;5.464;2023-05-03T02:30:50;102711.94;;;20.83;37.13
55187;BME280;55457;52.002;5.464;2023-05-03T02:33:16;102709.25;;;20.83;37.07
55187;BME280;55457;52.002;5.464;2023-05-03T02:35:41;102711.75;;;20.84;37.34
55187;BME280;55457;52.002;5.464;2023-05-03T02:38:07;102704.66;;;20.83;37.24
55187;BME280;55457;52.002;5.464;2023-05-03T02:40:32;102700.06;;;20.84;37.09
55187;BME280;55457;52.002;5.464;2023-05-03T02:42:57;102699.22;;;20.83;37.31
55187;BME280;55457;52.002;5.464;2023-05-03T02:45:23;102697.34;;;20.84;37.25
55187;BME280;55457;52.002;5.464;2023-05-03T02:47:48;102691.09;;;20.83;37.20
55187;BME280;55457;52.002;5.464;2023-05-03T02:50:14;102689.22;;;20.84;37.45
55187;BME280;55457;52.002;5.464;2023-05-03T02:52:39;102697.34;;;20.84;37.40
55187;BME280;55457;52.002;5.464;2023-05-03T02:55:05;102693.81;;;20.83;37.25
55187;BME280;55457;52.002;5.464;2023-05-03T02:57:30;102703.81;;;20.83;37.43
55187;BME280;55457;52.002;5.464;2023-05-03T02:59:56;102704.66;;;20.83;37.60
55187;BME280;55457;52.002;5.464;2023-05-03T03:02:21;102710.91;;;20.84;37.37
55187;BME280;55457;52.002;5.464;2023-05-03T03:04:46;102710.06;;;20.83;37.59
55187;BME280;55457;52.002;5.464;2023-05-03T03:07:12;102715.50;;;20.83;37.45
55187;BME280;55457;52.002;5.464;2023-05-03T03:09:37;102726.34;;;20.83;37.38
55187;BME280;55457;52.002;5.464;2023-05-03T03:12:02;102725.50;;;20.83;37.52
55187;BME280;55457;52.002;5.464;2023-05-03T03:14:28;102713.78;;;20.82;37.61
55187;BME280;55457;52.002;5.464;2023-05-03T03:16:54;102720.06;;;20.83;37.46
55187;BME280;55457;52.002;5.464;2023-05-03T03:19:20;102709.25;;;20.83;37.43
55187;BME280;55457;52.002;5.464;2023-05-03T03:21:45;102714.66;;;20.83;37.58
55187;BME280;55457;52.002;5.464;2023-05-03T03:24:10;102718.38;;;20.82;37.66
55187;BME280;55457;52.002;5.464;2023-05-03T03:26:36;102715.66;;;20.82;37.61
55187;BME280;55457;52.002;5.464;2023-05-03T03:29:01;102708.59;;;20.81;37.48
55187;BME280;55457;52.002;5.464;2023-05-03T03:31:26;102707.75;;;20.80;37.40
55187;BME280;55457;52.002;5.464;2023-05-03T03:33:52;102717.53;;;20.81;37.58
55187;BME280;55457;52.002;5.464;2023-05-03T03:36:17;102719.44;;;20.81;37.38
55187;BME280;55457;52.002;5.464;2023-05-03T03:38:42;102718.81;;;20.79;37.53
55187;BME280;55457;52.002;5.464;2023-05-03T03:41:08;102713.38;;;20.79;37.42
55187;BME280;55457;52.002;5.464;2023-05-03T03:43:33;102717.13;;;20.78;37.38
55187;BME280;55457;52.002;5.464;2023-05-03T03:46:00;102716.28;;;20.77;37.60
55187;BME280;55457;52.002;5.464;2023-05-03T03:48:25;102720.84;;;20.77;37.41
55187;BME280;55457;52.002;5.464;2023-05-03T03:50:51;102718.16;;;20.77;37.46
55187;BME280;55457;52.002;5.464;2023-05-03T03:53:16;102720.03;;;20.76;37.34
55187;BME280;55457;52.002;5.464;2023-05-03T03:55:41;102731.69;;;20.77;37.46
55187;BME280;55457;52.002;5.464;2023-05-03T03:58:07;102730.88;;;20.76;37.48
55187;BME280;55457;52.002;5.464;2023-05-03T04:00:33;102737.31;;;20.75;37.44
55187;BME280;55457;52.002;5.464;2023-05-03T04:03:01;102737.31;;;20.75;37.74
55187;BME280;55457;52.002;5.464;2023-05-03T04:05:26;102735.44;;;20.76;37.61
55187;BME280;55457;52.002;5.464;2023-05-03T04:07:52;102733.78;;;20.75;37.37
55187;BME280;55457;52.002;5.464;2023-05-03T04:10:17;102730.44;;;20.73;37.48
55187;BME280;55457;52.002;5.464;2023-05-03T04:12:42;102730.44;;;20.73;37.48
55187;BME280;55457;52.002;5.464;2023-05-03T04:15:09;102740.25;;;20.74;37.35
55187;BME280;55457;52.002;5.464;2023-05-03T04:17:34;102725.03;;;20.73;37.45
55187;BME280;55457;52.002;5.464;2023-05-03T04:20:03;102732.28;;;20.72;37.52
55187;BME280;55457;52.002;5.464;2023-05-03T04:22:32;102741.28;;;20.73;37.25
55187;BME280;55457;52.002;5.464;2023-05-03T04:24:57;102746.72;;;20.73;37.36
55187;BME280;55457;52.002;5.464;2023-05-03T04:27:25;102746.72;;;20.73;37.38
55187;BME280;55457;52.002;5.464;2023-05-03T04:29:50;102750.44;;;20.72;37.42
55187;BME280;55457;52.002;5.464;2023-05-03T04:32:16;102748.75;;;20.71;37.54
55187;BME280;55457;52.002;5.464;2023-05-03T04:34:44;102761.25;;;20.72;37.56
55187;BME280;55457;52.002;5.464;2023-05-03T04:37:10;102766.88;;;20.70;37.30
55187;BME280;55457;52.002;5.464;2023-05-03T04:39:35;102775.84;;;20.71;37.32
55187;BME280;55457;52.002;5.464;2023-05-03T04:42:00;102774.81;;;20.72;37.47
55187;BME280;55457;52.002;5.464;2023-05-03T04:44:26;102785.84;;;20.70;37.38
55187;BME280;55457;52.002;5.464;2023-05-03T04:46:51;102782.31;;;20.70;37.54
55187;BME280;55457;52.002;5.464;2023-05-03T04:49:17;102785.84;;;20.70;37.19
55187;BME280;55457;52.002;5.464;2023-05-03T04:51:42;102788.56;;;20.70;37.50
55187;BME280;55457;52.002;5.464;2023-05-03T04:54:07;102785.03;;;20.70;37.45
55187;BME280;55457;52.002;5.464;2023-05-03T04:56:33;102783.97;;;20.71;37.24
55187;BME280;55457;52.002;5.464;2023-05-03T04:59:00;102774.19;;;20.70;37.45
55187;BME280;55457;52.002;5.464;2023-05-03T05:01:25;102785.03;;;20.70;37.36
55187;BME280;55457;52.002;5.464;2023-05-03T05:03:52;102772.53;;;20.69;37.60
55187;BME280;55457;52.002;5.464;2023-05-03T05:06:18;102784.19;;;20.69;37.50
55187;BME280;55457;52.002;5.464;2023-05-03T05:08:43;102777.94;;;20.69;37.59
55187;BME280;55457;52.002;5.464;2023-05-03T05:11:09;102777.94;;;20.69;37.45
55187;BME280;55457;52.002;5.464;2023-05-03T05:13:34;102778.97;;;20.68;37.55
55187;BME280;55457;52.002;5.464;2023-05-03T05:16:00;102783.34;;;20.69;37.48
55187;BME280;55457;52.002;5.464;2023-05-03T05:18:25;102791.47;;;20.69;37.53
55187;BME280;55457;52.002;5.464;2023-05-03T05:20:51;102784.41;;;20.68;37.53
55187;BME280;55457;52.002;5.464;2023-05-03T05:23:16;102787.94;;;20.68;37.54
55187;BME280;55457;52.002;5.464;2023-05-03T05:25:41;102786.25;;;20.67;37.40
55187;BME280;55457;52.002;5.464;2023-05-03T05:28:08;102797.94;;;20.68;37.35
55187;BME280;55457;52.002;5.464;2023-05-03T05:30:34;102788.78;;;20.69;37.77
55187;BME280;55457;52.002;5.464;2023-05-03T05:32:59;102781.69;;;20.68;37.60
55187;BME280;55457;52.002;5.464;2023-05-03T05:35:24;102796.06;;;20.68;37.46
55187;BME280;55457;52.002;5.464;2023-05-03T05:37:49;102792.53;;;20.68;37.35
55187;BME280;55457;52.002;5.464;2023-05-03T05:40:15;102787.09;;;20.68;37.42
55187;BME280;55457;52.002;5.464;2023-05-03T05:42:40;102797.94;;;20.68;37.39
55187;BME280;55457;52.002;5.464;2023-05-03T05:45:06;102796.25;;;20.67;37.32
55187;BME280;55457;52.002;5.464;2023-05-03T05:47:32;102797.94;;;20.68;37.60
55187;BME280;55457;52.002;5.464;2023-05-03T05:49:57;102796.25;;;20.67;37.54
55187;BME280;55457;52.002;5.464;2023-05-03T05:52:23;102800.81;;;20.66;37.37
55187;BME280;55457;52.002;5.464;2023-05-03T05:54:48;102800.81;;;20.66;37.41
55187;BME280;55457;52.002;5.464;2023-05-03T05:57:13;102799.78;;;20.67;37.55
55187;BME280;55457;52.002;5.464;2023-05-03T05:59:38;102800.66;;;20.68;37.26
55187;BME280;55457;52.002;5.464;2023-05-03T06:02:10;102802.50;;;20.67;37.61
55187;BME280;55457;52.002;5.464;2023-05-03T06:04:38;102805.41;;;20.66;37.66
55187;BME280;55457;52.002;5.464;2023-05-03T06:07:03;102802.69;;;20.66;37.66
55187;BME280;55457;52.002;5.464;2023-05-03T06:09:28;102806.25;;;20.66;37.58
55187;BME280;55457;52.002;5.464;2023-05-03T06:11:53;102807.09;;;20.67;37.68
55187;BME280;55457;52.002;5.464;2023-05-03T06:14:19;102801.66;;;20.67;37.61
55187;BME280;55457;52.002;5.464;2023-05-03T06:16:45;102800.00;;;20.66;37.45
55187;BME280;55457;52.002;5.464;2023-05-03T06:19:10;102800.81;;;20.66;37.67
55187;BME280;55457;52.002;5.464;2023-05-03T06:21:35;102800.00;;;20.66;37.69
55187;BME280;55457;52.002;5.464;2023-05-03T06:24:01;102800.00;;;20.66;37.86
55187;BME280;55457;52.002;5.464;2023-05-03T06:26:27;102798.13;;;20.66;37.54
55187;BME280;55457;52.002;5.464;2023-05-03T06:28:53;102784.56;;;20.66;37.63
55187;BME280;55457;52.002;5.464;2023-05-03T06:31:18;102792.69;;;20.66;37.38
55187;BME280;55457;52.002;5.464;2023-05-03T06:33:43;102793.53;;;20.67;37.48
55187;BME280;55457;52.002;5.464;2023-05-03T06:36:09;102788.13;;;20.67;37.70
55187;BME280;55457;52.002;5.464;2023-05-03T06:38:34;102790.81;;;20.67;37.65
55187;BME280;55457;52.002;5.464;2023-05-03T06:40:59;102784.41;;;20.68;37.62
55187;BME280;55457;52.002;5.464;2023-05-03T06:43:24;102785.41;;;20.67;37.59
55187;BME280;55457;52.002;5.464;2023-05-03T06:45:50;102783.75;;;20.66;37.63
55187;BME280;55457;52.002;5.464;2023-05-03T06:48:17;102790.81;;;20.67;37.68
55187;BME280;55457;52.002;5.464;2023-05-03T06:50:42;102784.41;;;20.68;38.03
55187;BME280;55457;52.002;5.464;2023-05-03T06:53:08;102787.09;;;20.68;39.73
55187;BME280;55457;52.002;5.464;2023-05-03T06:55:33;102788.78;;;20.69;40.95
55187;BME280;55457;52.002;5.464;2023-05-03T06:57:58;102781.28;;;20.71;42.41
55187;BME280;55457;52.002;5.464;2023-05-03T07:00:24;102784.63;;;20.73;43.81
55187;BME280;55457;52.002;5.464;2023-05-03T07:02:50;102782.56;;;20.75;45.47
55187;BME280;55457;52.002;5.464;2023-05-03T07:05:15;102786.94;;;20.76;42.35
55187;BME280;55457;52.002;5.464;2023-05-03T07:07:41;102774.22;;;20.76;41.14
55187;BME280;55457;52.002;5.464;2023-05-03T07:10:06;102772.56;;;20.75;40.86
55187;BME280;55457;52.002;5.464;2023-05-03T07:12:32;102773.38;;;20.76;40.66
55187;BME280;55457;52.002;5.464;2023-05-03T07:14:57;102768.81;;;20.76;41.12
55187;BME280;55457;52.002;5.464;2023-05-03T07:17:23;102767.75;;;20.77;40.95
55187;BME280;55457;52.002;5.464;2023-05-03T07:19:50;102768.63;;;20.78;41.07
55187;BME280;55457;52.002;5.464;2023-05-03T07:22:15;102770.28;;;20.79;41.08
55187;BME280;55457;52.002;5.464;2023-05-03T07:24:41;102764.88;;;20.79;40.76
55187;BME280;55457;52.002;5.464;2023-05-03T07:27:06;102756.75;;;20.79;40.62
55187;BME280;55457;52.002;5.464;2023-05-03T07:29:32;102754.88;;;20.79;40.50
55187;BME280;55457;52.002;5.464;2023-05-03T07:31:59;102756.75;;;20.79;40.49
55187;BME280;55457;52.002;5.464;2023-05-03T07:34:25;102747.56;;;20.80;40.67
55187;BME280;55457;52.002;5.464;2023-05-03T07:36:50;102754.66;;;20.81;40.20
55187;BME280;55457;52.002;5.464;2023-05-03T07:39:16;102738.41;;;20.81;40.19
55187;BME280;55457;52.002;5.464;2023-05-03T07:41:41;102721.31;;;20.80;39.93
55187;BME280;55457;52.002;5.464;2023-05-03T07:44:07;102732.97;;;20.81;39.83
55187;BME280;55457;52.002;5.464;2023-05-03T07:46:32;102736.34;;;20.83;39.94
55187;BME280;55457;52.002;5.464;2023-05-03T07:49:00;102736.34;;;20.83;39.83
55187;BME280;55457;52.002;5.464;2023-05-03T07:51:25;102732.75;;;20.82;39.73
55187;BME280;55457;52.002;5.464;2023-05-03T07:53:51;102730.91;;;20.83;39.51
55187;BME280;55457;52.002;5.464;2023-05-03T07:56:16;102736.34;;;20.83;39.57
55187;BME280;55457;52.002;5.464;2023-05-03T07:58:41;102728.00;;;20.84;39.46
55187;BME280;55457;52.002;5.464;2023-05-03T08:01:07;102724.47;;;20.84;39.25
55187;BME280;55457;52.002;5.464;2023-05-03T08:03:32;102728.00;;;20.84;38.89
55187;BME280;55457;52.002;5.464;2023-05-03T08:05:57;102723.63;;;20.83;38.87
55187;BME280;55457;52.002;5.464;2023-05-03T08:08:22;102719.88;;;20.84;38.90
55187;BME280;55457;52.002;5.464;2023-05-03T08:10:51;102721.75;;;20.84;38.91
55187;BME280;55457;52.002;5.464;2023-05-03T08:13:16;102717.16;;;20.84;38.95
55187;BME280;55457;52.002;5.464;2023-05-03T08:15:41;102713.41;;;20.85;39.12
55187;BME280;55457;52.002;5.464;2023-05-03T08:18:07;102718.81;;;20.85;39.10
55187;BME280;55457;52.002;5.464;2023-05-03T08:20:33;102718.63;;;20.87;39.21
55187;BME280;55457;52.002;5.464;2023-05-03T08:23:01;102721.31;;;20.87;39.40
55187;BME280;55457;52.002;5.464;2023-05-03T08:25:26;102708.59;;;20.88;39.36
55187;BME280;55457;52.002;5.464;2023-05-03T08:27:52;102703.00;;;20.89;39.79
55187;BME280;55457;52.002;5.464;2023-05-03T08:30:19;102696.53;;;20.90;40.04
55187;BME280;55457;52.002;5.464;2023-05-03T08:32:45;102702.59;;;20.92;39.88
55187;BME280;55457;52.002;5.464;2023-05-03T08:35:11;102700.72;;;20.93;39.51
55187;BME280;55457;52.002;5.464;2023-05-03T08:37:41;102701.34;;;20.95;39.69
55187;BME280;55457;52.002;5.464;2023-05-03T08:40:08;102702.19;;;20.95;39.65
55187;BME280;55457;52.002;5.464;2023-05-03T08:42:42;102695.50;;;20.98;39.65
55187;BME280;55457;52.002;5.464;2023-05-03T08:45:13;102703.47;;;20.99;39.54
55187;BME280;55457;52.002;5.464;2023-05-03T08:47:39;102715.97;;;21.00;40.04
55187;BME280;55457;52.002;5.464;2023-05-03T08:50:07;102704.09;;;21.01;40.01
55187;BME280;55457;52.002;5.464;2023-05-03T08:52:33;102707.41;;;21.03;39.96
55187;BME280;55457;52.002;5.464;2023-05-03T08:54:59;102708.91;;;21.06;40.06
55187;BME280;55457;52.002;5.464;2023-05-03T08:57:26;102707.03;;;21.06;39.66
55187;BME280;55457;52.002;5.464;2023-05-03T08:59:52;102712.06;;;21.09;39.56
55187;BME280;55457;52.002;5.464;2023-05-03T09:02:18;102707.25;;;21.11;39.83
55187;BME280;55457;52.002;5.464;2023-05-03T09:04:44;102706.00;;;21.14;39.66
55187;BME280;55457;52.002;5.464;2023-05-03T09:07:10;102705.81;;;21.16;39.52
55187;BME280;55457;52.002;5.464;2023-05-03T09:09:37;102709.16;;;21.18;39.35
55187;BME280;55457;52.002;5.464;2023-05-03T09:12:03;102704.38;;;21.20;39.57
55187;BME280;55457;52.002;5.464;2023-05-03T09:14:28;102714.78;;;21.23;39.55
55187;BME280;55457;52.002;5.464;2023-05-03T09:16:54;102714.41;;;21.26;39.68
55187;BME280;55457;52.002;5.464;2023-05-03T09:19:19;102719.41;;;21.29;39.27
55187;BME280;55457;52.002;5.464;2023-05-03T09:21:48;102714.66;;;21.31;39.34
55187;BME280;55457;52.002;5.464;2023-05-03T09:24:19;102712.34;;;21.34;39.50
55187;BME280;55457;52.002;5.464;2023-05-03T09:26:46;102712.78;;;21.38;39.68
55187;BME280;55457;52.002;5.464;2023-05-03T09:29:28;102715.09;;;21.41;39.42
55187;BME280;55457;52.002;5.464;2023-05-03T09:31:59;102712.78;;;21.45;39.11
55187;BME280;55457;52.002;5.464;2023-05-03T09:34:24;102718.03;;;21.46;39.44
55187;BME280;55457;52.002;5.464;2023-05-03T09:36:50;102722.41;;;21.54;37.67
55187;BME280;55457;52.002;5.464;2023-05-03T09:39:16;102721.19;;;21.56;35.33
55187;BME280;55457;52.002;5.464;2023-05-03T09:41:42;102728.44;;;21.56;34.11
55187;BME280;55457;52.002;5.464;2023-05-03T09:44:07;102725.34;;;21.52;32.74
55187;BME280;55457;52.002;5.464;2023-05-03T09:46:32;102725.34;;;21.52;32.18
55187;BME280;55457;52.002;5.464;2023-05-03T09:48:58;102721.56;;;21.53;32.02
55187;BME280;55457;52.002;5.464;2023-05-03T09:51:23;102725.94;;;21.54;31.47
55187;BME280;55457;52.002;5.464;2023-05-03T09:53:49;102730.16;;;21.57;31.43
55187;BME280;55457;52.002;5.464;2023-05-03T09:56:15;102715.75;;;21.56;31.25
55187;BME280;55457;52.002;5.464;2023-05-03T09:58:42;102721.19;;;21.56;31.25
55187;BME280;55457;52.002;5.464;2023-05-03T10:01:08;102710.31;;;21.56;31.00
55187;BME280;55457;52.002;5.464;2023-05-03T10:03:45;102718.25;;;21.58;30.91
55187;BME280;55457;52.002;5.464;2023-05-03T10:06:25;102713.44;;;21.60;30.85
55187;BME280;55457;52.002;5.464;2023-05-03T10:09:05;102713.25;;;21.61;31.01
55187;BME280;55457;52.002;5.464;2023-05-03T10:11:35;102705.13;;;21.61;30.61
55187;BME280;55457;52.002;5.464;2023-05-03T10:14:01;102703.22;;;21.62;30.15
55187;BME280;55457;52.002;5.464;2023-05-03T10:16:31;102701.97;;;21.65;30.14
55187;BME280;55457;52.002;5.464;2023-05-03T10:18:59;102705.34;;;21.67;30.02
55187;BME280;55457;52.002;5.464;2023-05-03T10:22:03;102697.41;;;21.72;30.08
55187;BME280;55457;52.002;5.464;2023-05-03T10:24:35;102695.31;;;21.74;30.36
55187;BME280;55457;52.002;5.464;2023-05-03T10:27:03;102680.69;;;21.75;30.06
55187;BME280;55457;52.002;5.464;2023-05-03T10:29:43;102687.59;;;21.77;30.23
55187;BME280;55457;52.002;5.464;2023-05-03T10:32:33;102691.13;;;21.78;30.21
55187;BME280;55457;52.002;5.464;2023-05-03T10:35:05;102687.59;;;21.77;29.75
55187;BME280;55457;52.002;5.464;2023-05-03T10:37:32;102690.09;;;21.79;30.20
55187;BME280;55457;52.002;5.464;2023-05-03T10:40:11;102693.41;;;21.81;30.35
55187;BME280;55457;52.002;5.464;2023-05-03T10:42:38;102688.63;;;21.83;30.20
55187;BME280;55457;52.002;5.464;2023-05-03T10:45:07;102682.78;;;21.86;30.89
55187;BME280;55457;52.002;5.464;2023-05-03T10:47:33;102675.66;;;21.92;30.98
55187;BME280;55457;52.002;5.464;2023-05-03T10:55:15;102681.09;;;22.05;30.30
55187;BME280;55457;52.002;5.464;2023-05-03T10:57:43;102676.09;;;22.08;30.33
55187;BME280;55457;52.002;5.464;2023-05-03T11:00:15;102679.03;;;22.13;30.14
55187;BME280;55457;52.002;5.464;2023-05-03T11:05:29;102676.53;;;22.19;29.61
55187;BME280;55457;52.002;5.464;2023-05-03T11:08:15;102665.22;;;22.22;29.66
55187;BME280;55457;52.002;5.464;2023-05-03T11:10:45;102663.13;;;22.24;29.28
55187;BME280;55457;52.002;5.464;2023-05-03T11:13:11;102666.47;;;22.26;29.34
55187;BME280;55457;52.002;5.464;2023-05-03T11:15:37;102655.16;;;22.29;29.77
55187;BME280;55457;52.002;5.464;2023-05-03T11:18:05;102656.63;;;22.31;29.23
55187;BME280;55457;52.002;5.464;2023-05-03T11:20:31;102634.69;;;22.33;29.22
55187;BME280;55457;52.002;5.464;2023-05-03T11:22:57;102644.50;;;22.34;29.88
55187;BME280;55457;52.002;5.464;2023-05-03T11:25:23;102650.56;;;22.36;29.77
55187;BME280;55457;52.002;5.464;2023-05-03T11:27:48;102643.88;;;22.32;29.37
55187;BME280;55457;52.002;5.464;2023-05-03T11:30:14;102633.63;;;22.34;29.31
55187;BME280;55457;52.002;5.464;2023-05-03T11:32:41;102636.56;;;22.32;28.94
55187;BME280;55457;52.002;5.464;2023-05-03T11:35:07;102633.25;;;22.30;29.33
55187;BME280;55457;52.002;5.464;2023-05-03T11:37:33;102630.94;;;22.27;29.50
55187;BME280;55457;52.002;5.464;2023-05-03T11:39:59;102635.13;;;22.30;29.32
55187;BME280;55457;52.002;5.464;2023-05-03T11:42:25;102632.81;;;22.33;29.35
55187;BME280;55457;52.002;5.464;2023-05-03T11:44:54;102628.84;;;22.36;29.06
55187;BME280;55457;52.002;5.464;2023-05-03T11:47:20;102621.94;;;22.40;29.35
55187;BME280;55457;52.002;5.464;2023-05-03T11:49:53;102623.16;;;22.44;29.60
55187;BME280;55457;52.002;5.464;2023-05-03T11:52:23;102627.34;;;22.47;29.17
55187;BME280;55457;52.002;5.464;2023-05-03T11:54:50;102620.44;;;22.51;28.92
55187;BME280;55457;52.002;5.464;2023-05-03T11:57:15;102616.66;;;22.52;28.89
55187;BME280;55457;52.002;5.464;2023-05-03T11:59:41;102619.97;;;22.54;28.97
55187;BME280;55457;52.002;5.464;2023-05-03T12:02:08;102611.63;;;22.55;29.07
55187;BME280;55457;52.002;5.464;2023-05-03T12:04:35;102610.38;;;22.58;28.75
55187;BME280;55457;52.002;5.464;2023-05-03T12:07:02;102614.53;;;22.60;29.27
55187;BME280;55457;52.002;5.464;2023-05-03T12:09:27;102609.50;;;22.64;28.70
55187;BME280;55457;52.002;5.464;2023-05-03T12:11:53;102603.63;;;22.67;28.84
55187;BME280;55457;52.002;5.464;2023-05-03T12:14:18;102591.47;;;22.70;28.68
55187;BME280;55457;52.002;5.464;2023-05-03T12:16:47;102591.47;;;22.70;28.32
55187;BME280;55457;52.002;5.464;2023-05-03T12:19:25;102582.06;;;22.72;28.74
55187;BME280;55457;52.002;5.464;2023-05-03T12:21:51;102581.84;;;22.74;28.90
55187;BME280;55457;52.002;5.464;2023-05-03T12:24:16;102585.19;;;22.76;28.88
55187;BME280;55457;52.002;5.464;2023-05-03T12:26:44;102587.69;;;22.77;28.29
55187;BME280;55457;52.002;5.464;2023-05-03T12:29:09;102584.75;;;22.79;28.71
55187;BME280;55457;52.002;5.464;2023-05-03T12:31:35;102579.53;;;22.77;28.70
55187;BME280;55457;52.002;5.464;2023-05-03T12:34:01;102575.53;;;22.80;28.72
55187;BME280;55457;52.002;5.464;2023-05-03T12:36:29;102566.31;;;22.81;28.54
55187;BME280;55457;52.002;5.464;2023-05-03T12:38:56;102557.16;;;22.82;28.72
55187;BME280;55457;52.002;5.464;2023-05-03T12:41:21;102558.16;;;22.87;28.72
55187;BME280;55457;52.002;5.464;2023-05-03T12:43:49;102548.75;;;22.90;28.83
55187;BME280;55457;52.002;5.464;2023-05-03T12:46:14;102551.22;;;22.91;28.77
55187;BME280;55457;52.002;5.464;2023-05-03T12:48:39;102548.31;;;22.93;28.69
55187;BME280;55457;52.002;5.464;2023-05-03T12:51:05;102551.22;;;22.91;28.18
55187;BME280;55457;52.002;5.464;2023-05-03T12:53:30;102546.66;;;22.92;28.25
55187;BME280;55457;52.002;5.464;2023-05-03T12:55:55;102540.16;;;22.93;28.49
55187;BME280;55457;52.002;5.464;2023-05-03T12:58:21;102536.16;;;22.96;28.36